createdAt,value
2019-03-17T00:00:39.048Z,942.87
2019-03-17T00:01:39.032Z,942.82
2019-03-17T00:02:39.021Z,942.82
2019-03-17T00:03:39.007Z,942.91
2019-03-17T00:04:38.989Z,942.88
2019-03-17T00:05:38.973Z,942.94
2019-03-17T00:06:38.958Z,942.84
2019-03-17T00:07:38.945Z,942.83
2019-03-17T00:08:38.930Z,942.82
2019-03-17T00:09:38.942Z,942.85
2019-03-17T00:10:38.900Z,942.9
2019-03-17T00:11:38.888Z,942.84
2019-03-17T00:12:38.871Z,942.76
2019-03-17T00:13:38.909Z,942.7
2019-03-17T00:14:38.841Z,942.72
2019-03-17T00:15:38.828Z,942.76
2019-03-17T00:16:38.814Z,942.74
2019-03-17T00:17:41.660Z,942.64
2019-03-17T00:18:38.783Z,942.75
2019-03-17T00:19:38.771Z,942.7
2019-03-17T00:20:38.756Z,942.8
2019-03-17T00:21:38.739Z,942.75
2019-03-17T00:22:38.725Z,942.7
2019-03-17T00:23:38.709Z,942.61
2019-03-17T00:24:38.694Z,942.66
2019-03-17T00:25:38.679Z,942.7
2019-03-17T00:26:38.666Z,942.69
2019-03-17T00:27:38.650Z,942.75
2019-03-17T00:28:38.634Z,942.69
2019-03-17T00:29:38.620Z,942.71
2019-03-17T00:30:38.606Z,942.71
2019-03-17T00:31:38.591Z,942.62
2019-03-17T00:32:38.578Z,942.63
2019-03-17T00:33:38.565Z,942.69
2019-03-17T00:34:43.855Z,942.68
2019-03-17T00:35:38.534Z,942.7
2019-03-17T00:36:38.518Z,942.61
2019-03-17T00:37:38.503Z,942.69
2019-03-17T00:38:38.488Z,942.47
2019-03-17T00:39:38.476Z,942.6
2019-03-17T00:40:38.459Z,942.54
2019-03-17T00:41:38.443Z,942.56
2019-03-17T00:42:38.429Z,942.54
2019-03-17T00:43:38.413Z,942.53
2019-03-17T00:44:38.399Z,942.55
2019-03-17T00:45:38.384Z,942.5
2019-03-17T00:46:38.368Z,942.43
2019-03-17T00:47:38.354Z,942.48
2019-03-17T00:48:38.339Z,942.44
2019-03-17T00:49:38.329Z,942.5
2019-03-17T00:50:38.311Z,942.33
2019-03-17T00:51:38.296Z,942.38
2019-03-17T00:52:38.284Z,942.39
2019-03-17T00:53:38.287Z,942.39
2019-03-17T00:54:38.251Z,942.41
2019-03-17T00:55:38.236Z,942.36
2019-03-17T00:56:38.222Z,942.38
2019-03-17T00:57:38.209Z,942.37
2019-03-17T00:58:38.192Z,942.3
2019-03-17T00:59:38.178Z,942.28
2019-03-17T01:00:38.163Z,942.23
2019-03-17T01:01:38.148Z,942.26
2019-03-17T01:02:38.132Z,942.23
2019-03-17T01:03:38.119Z,942.31
2019-03-17T01:04:38.103Z,942.24
2019-03-17T01:05:38.090Z,942.27
2019-03-17T01:06:38.075Z,942.22
2019-03-17T01:07:38.059Z,942.19
2019-03-17T01:08:38.044Z,942.16
2019-03-17T01:09:38.028Z,942.16
2019-03-17T01:10:38.023Z,942.12
2019-03-17T01:11:38.009Z,942.15
2019-03-17T01:12:37.984Z,942.12
2019-03-17T01:13:37.969Z,942.2
2019-03-17T01:14:37.956Z,942.16
2019-03-17T01:15:37.941Z,942.14
2019-03-17T01:16:37.925Z,942.09
2019-03-17T01:17:37.912Z,942.1
2019-03-17T01:18:37.900Z,942.1
2019-03-17T01:19:37.881Z,942.07
2019-03-17T01:20:37.867Z,942.08
2019-03-17T01:21:37.855Z,942.07
2019-03-17T01:22:37.841Z,942.04
2019-03-17T01:23:37.822Z,942.07
2019-03-17T01:24:37.808Z,942.13
2019-03-17T01:25:37.797Z,942.07
2019-03-17T01:26:37.779Z,942.13
2019-03-17T01:27:37.763Z,942.11
2019-03-17T01:28:37.749Z,942.15
2019-03-17T01:29:37.737Z,942.08
2019-03-17T01:30:37.721Z,942.05
2019-03-17T01:31:37.705Z,942.12
2019-03-17T01:32:37.692Z,942.12
2019-03-17T01:33:37.678Z,942.1
2019-03-17T01:34:37.660Z,942.14
2019-03-17T01:35:37.646Z,942.21
2019-03-17T01:36:37.632Z,942.07
2019-03-17T01:37:37.618Z,942.03
2019-03-17T01:38:37.603Z,942.08
2019-03-17T01:39:37.588Z,942.13
2019-03-17T01:40:37.574Z,942.29
2019-03-17T01:41:37.558Z,942.22
2019-03-17T01:42:37.545Z,942.09
2019-03-17T01:43:37.531Z,942.13
2019-03-17T01:44:37.515Z,942.09
2019-03-17T01:45:37.501Z,942.11
2019-03-17T01:46:37.486Z,942.07
2019-03-17T01:47:37.476Z,942.09
2019-03-17T01:48:37.459Z,942.04
2019-03-17T01:49:37.444Z,941.98
2019-03-17T01:50:37.431Z,942.06
2019-03-17T01:51:37.414Z,941.97
2019-03-17T01:52:37.399Z,941.99
2019-03-17T01:53:37.386Z,941.98
2019-03-17T01:54:37.371Z,942.01
2019-03-17T01:55:37.357Z,941.91
2019-03-17T01:56:37.342Z,942
2019-03-17T01:57:37.327Z,941.97
2019-03-17T01:58:37.311Z,942.02
2019-03-17T01:59:37.334Z,941.91
2019-03-17T02:00:37.283Z,942.07
2019-03-17T02:01:37.268Z,941.88
2019-03-17T02:02:37.255Z,941.76
2019-03-17T02:03:37.240Z,941.75
2019-03-17T02:04:37.226Z,941.71
2019-03-17T02:05:37.210Z,941.82
2019-03-17T02:06:37.197Z,941.73
2019-03-17T02:07:37.181Z,941.73
2019-03-17T02:08:37.167Z,941.75
2019-03-17T02:09:37.152Z,941.75
2019-03-17T02:10:37.138Z,941.59
2019-03-17T02:11:37.122Z,941.67
2019-03-17T02:12:37.118Z,941.62
2019-03-17T02:13:37.098Z,941.69
2019-03-17T02:14:37.079Z,941.64
2019-03-17T02:15:37.066Z,941.71
2019-03-17T02:16:37.050Z,941.68
2019-03-17T02:17:37.042Z,941.66
2019-03-17T02:18:37.024Z,941.63
2019-03-17T02:19:37.007Z,941.6
2019-03-17T02:20:36.992Z,941.6
2019-03-17T02:21:36.977Z,941.59
2019-03-17T02:22:36.966Z,941.6
2019-03-17T02:23:36.949Z,941.61
2019-03-17T02:24:36.935Z,941.59
2019-03-17T02:25:36.921Z,941.56
2019-03-17T02:26:36.906Z,941.62
2019-03-17T02:27:36.892Z,941.5
2019-03-17T02:28:36.879Z,941.56
2019-03-17T02:29:36.863Z,941.63
2019-03-17T02:30:36.849Z,941.51
2019-03-17T02:31:36.835Z,941.48
2019-03-17T02:32:36.821Z,941.53
2019-03-17T02:33:36.815Z,941.55
2019-03-17T02:34:36.792Z,941.49
2019-03-17T02:35:39.188Z,941.46
2019-03-17T02:36:36.764Z,941.38
2019-03-17T02:37:36.749Z,941.39
2019-03-17T02:38:36.736Z,941.35
2019-03-17T02:39:36.724Z,941.29
2019-03-17T02:40:36.705Z,941.36
2019-03-17T02:41:36.691Z,941.34
2019-03-17T02:42:36.683Z,941.38
2019-03-17T02:43:36.673Z,941.29
2019-03-17T02:44:36.650Z,941.2
2019-03-17T02:45:36.647Z,941.24
2019-03-17T02:46:36.621Z,941.28
2019-03-17T02:47:36.604Z,941.27
2019-03-17T02:48:36.591Z,941.3
2019-03-17T02:49:36.579Z,941.27
2019-03-17T02:50:36.564Z,941.37
2019-03-17T02:51:36.549Z,941.24
2019-03-17T02:52:36.533Z,941.25
2019-03-17T02:53:36.520Z,941.27
2019-03-17T02:54:36.505Z,941.25
2019-03-17T02:55:36.515Z,941.27
2019-03-17T02:56:36.478Z,941.21
2019-03-17T02:57:36.465Z,941.24
2019-03-17T02:58:36.447Z,941.26
2019-03-17T02:59:36.439Z,941.18
2019-03-17T03:00:36.420Z,941.27
2019-03-17T03:01:36.409Z,941.26
2019-03-17T03:02:36.390Z,941.18
2019-03-17T03:03:36.376Z,941.21
2019-03-17T03:04:36.376Z,941.28
2019-03-17T03:05:36.352Z,941.2
2019-03-17T03:06:36.332Z,941.13
2019-03-17T03:07:36.320Z,941.21
2019-03-17T03:08:36.306Z,941.11
2019-03-17T03:09:36.290Z,941.07
2019-03-17T03:10:36.278Z,941.07
2019-03-17T03:11:36.263Z,941.01
2019-03-17T03:12:36.259Z,940.97
2019-03-17T03:13:36.237Z,941.09
2019-03-17T03:14:36.220Z,940.97
2019-03-17T03:15:36.205Z,941
2019-03-17T03:16:36.190Z,940.98
2019-03-17T03:17:36.183Z,941
2019-03-17T03:18:36.164Z,940.89
2019-03-17T03:19:36.148Z,940.89
2019-03-17T03:20:36.132Z,940.94
2019-03-17T03:21:36.121Z,940.91
2019-03-17T03:22:36.105Z,940.83
2019-03-17T03:23:36.094Z,940.85
2019-03-17T03:24:36.079Z,940.83
2019-03-17T03:25:36.063Z,940.86
2019-03-17T03:26:36.050Z,940.82
2019-03-17T03:27:36.059Z,940.76
2019-03-17T03:28:36.022Z,940.75
2019-03-17T03:29:36.008Z,940.78
2019-03-17T03:30:35.993Z,940.75
2019-03-17T03:31:35.979Z,940.77
2019-03-17T03:32:35.980Z,940.74
2019-03-17T03:33:35.961Z,940.75
2019-03-17T03:34:35.936Z,940.7
2019-03-17T03:35:35.921Z,940.72
2019-03-17T03:36:35.910Z,940.69
2019-03-17T03:37:35.894Z,940.72
2019-03-17T03:38:35.879Z,940.66
2019-03-17T03:39:35.865Z,940.62
2019-03-17T03:40:35.850Z,940.55
2019-03-17T03:41:35.837Z,940.65
2019-03-17T03:42:35.826Z,940.52
2019-03-17T03:43:35.809Z,940.54
2019-03-17T03:44:35.793Z,940.52
2019-03-17T03:45:35.781Z,940.58
2019-03-17T03:46:35.765Z,940.5
2019-03-17T03:47:35.763Z,940.48
2019-03-17T03:48:35.738Z,940.45
2019-03-17T03:49:35.727Z,940.43
2019-03-17T03:50:35.709Z,940.44
2019-03-17T03:51:35.696Z,940.46
2019-03-17T03:52:35.683Z,940.32
2019-03-17T03:53:35.665Z,940.31
2019-03-17T03:54:35.653Z,940.25
2019-03-17T03:55:35.637Z,940.21
2019-03-17T03:56:35.625Z,940.24
2019-03-17T03:57:35.610Z,940.11
2019-03-17T03:58:35.606Z,940.07
2019-03-17T03:59:35.583Z,940.09
2019-03-17T04:00:35.568Z,940.1
2019-03-17T04:01:35.554Z,940.01
2019-03-17T04:02:35.538Z,940.05
2019-03-17T04:03:35.529Z,940.14
2019-03-17T04:04:35.512Z,940.16
2019-03-17T04:05:35.496Z,940.12
2019-03-17T04:06:35.482Z,940.04
2019-03-17T04:07:35.469Z,940
2019-03-17T04:08:35.460Z,940.04
2019-03-17T04:09:35.450Z,940.04
2019-03-17T04:10:35.427Z,940.08
2019-03-17T04:11:35.414Z,940.12
2019-03-17T04:12:35.399Z,940.05
2019-03-17T04:13:35.386Z,939.93
2019-03-17T04:14:35.371Z,939.97
2019-03-17T04:15:35.355Z,939.96
2019-03-17T04:16:35.341Z,940.15
2019-03-17T04:17:35.328Z,940.14
2019-03-17T04:18:35.313Z,940.26
2019-03-17T04:19:35.300Z,940.2
2019-03-17T04:20:35.289Z,940.08
2019-03-17T04:21:35.270Z,940.13
2019-03-17T04:22:35.257Z,940.24
2019-03-17T04:23:35.242Z,940.12
2019-03-17T04:24:35.229Z,940.14
2019-03-17T04:25:35.215Z,940.12
2019-03-17T04:26:35.201Z,940.14
2019-03-17T04:27:35.187Z,940.24
2019-03-17T04:28:35.171Z,940.12
2019-03-17T04:29:35.160Z,940
2019-03-17T04:30:35.145Z,940.08
2019-03-17T04:31:35.132Z,940.04
2019-03-17T04:32:35.116Z,940.11
2019-03-17T04:33:35.101Z,940.06
2019-03-17T04:34:35.089Z,940.06
2019-03-17T04:35:35.073Z,939.99
2019-03-17T04:36:40.329Z,940.07
2019-03-17T04:37:35.048Z,940
2019-03-17T04:38:35.033Z,940.03
2019-03-17T04:39:35.018Z,939.96
2019-03-17T04:40:35.003Z,939.91
2019-03-17T04:41:34.989Z,940.03
2019-03-17T04:42:34.975Z,939.91
2019-03-17T04:43:34.963Z,939.95
2019-03-17T04:44:34.948Z,939.98
2019-03-17T04:45:34.933Z,939.95
2019-03-17T04:46:34.920Z,939.84
2019-03-17T04:47:34.907Z,939.93
2019-03-17T04:48:34.918Z,939.8
2019-03-17T04:49:34.878Z,939.85
2019-03-17T04:50:34.863Z,939.77
2019-03-17T04:51:34.850Z,939.85
2019-03-17T04:52:34.835Z,939.72
2019-03-17T04:53:34.821Z,939.75
2019-03-17T04:54:34.807Z,939.76
2019-03-17T04:55:34.792Z,939.77
2019-03-17T04:56:34.779Z,939.74
2019-03-17T04:57:34.765Z,939.64
2019-03-17T04:58:34.752Z,939.72
2019-03-17T04:59:34.738Z,939.62
2019-03-17T05:00:34.723Z,939.69
2019-03-17T05:01:34.710Z,939.68
2019-03-17T05:02:34.696Z,939.66
2019-03-17T05:03:34.683Z,939.65
2019-03-17T05:04:34.669Z,939.63
2019-03-17T05:05:34.658Z,939.61
2019-03-17T05:06:34.639Z,939.65
2019-03-17T05:07:34.627Z,939.75
2019-03-17T05:08:34.611Z,939.77
2019-03-17T05:09:34.596Z,939.74
2019-03-17T05:10:34.584Z,939.87
2019-03-17T05:11:34.570Z,939.99
2019-03-17T05:12:34.555Z,939.86
2019-03-17T05:13:34.547Z,939.79
2019-03-17T05:14:34.528Z,939.81
2019-03-17T05:15:34.514Z,939.9
2019-03-17T05:16:35.760Z,939.87
2019-03-17T05:17:34.489Z,939.8
2019-03-17T05:18:34.471Z,939.77
2019-03-17T05:19:34.458Z,939.82
2019-03-17T05:20:34.444Z,939.84
2019-03-17T05:21:34.430Z,939.84
2019-03-17T05:22:34.415Z,939.77
2019-03-17T05:23:34.401Z,939.77
2019-03-17T05:24:34.387Z,939.71
2019-03-17T05:25:34.377Z,939.72
2019-03-17T05:26:34.361Z,939.74
2019-03-17T05:27:34.347Z,939.79
2019-03-17T05:28:34.332Z,939.67
2019-03-17T05:29:34.318Z,939.62
2019-03-17T05:30:34.304Z,939.66
2019-03-17T05:31:34.289Z,939.61
2019-03-17T05:32:34.277Z,939.67
2019-03-17T05:33:34.262Z,939.66
2019-03-17T05:34:34.248Z,939.69
2019-03-17T05:35:34.249Z,939.65
2019-03-17T05:36:34.222Z,939.67
2019-03-17T05:37:34.211Z,939.51
2019-03-17T05:38:34.192Z,939.72
2019-03-17T05:39:34.179Z,939.76
2019-03-17T05:40:34.164Z,939.77
2019-03-17T05:41:34.150Z,939.73
2019-03-17T05:42:34.137Z,939.68
2019-03-17T05:43:34.126Z,939.73
2019-03-17T05:44:34.115Z,939.55
2019-03-17T05:45:34.103Z,939.59
2019-03-17T05:46:34.080Z,939.6
2019-03-17T05:47:34.068Z,939.63
2019-03-17T05:48:34.062Z,939.5
2019-03-17T05:49:34.041Z,939.59
2019-03-17T05:50:34.025Z,939.58
2019-03-17T05:51:34.011Z,939.52
2019-03-17T05:52:33.997Z,939.68
2019-03-17T05:53:33.984Z,939.68
2019-03-17T05:54:33.969Z,939.57
2019-03-17T05:55:33.959Z,939.59
2019-03-17T05:56:33.952Z,939.55
2019-03-17T05:57:33.927Z,939.53
2019-03-17T05:58:33.915Z,939.53
2019-03-17T05:59:33.901Z,939.69
2019-03-17T06:00:33.888Z,939.65
2019-03-17T06:01:33.872Z,939.54
2019-03-17T06:02:33.859Z,939.6
2019-03-17T06:03:33.845Z,939.59
2019-03-17T06:04:33.831Z,939.53
2019-03-17T06:05:33.820Z,939.61
2019-03-17T06:06:33.803Z,939.58
2019-03-17T06:07:33.794Z,939.59
2019-03-17T06:08:33.853Z,939.48
2019-03-17T06:09:33.764Z,939.68
2019-03-17T06:10:33.750Z,939.61
2019-03-17T06:11:33.737Z,939.49
2019-03-17T06:12:33.722Z,939.65
2019-03-17T06:13:33.708Z,939.57
2019-03-17T06:14:33.694Z,939.76
2019-03-17T06:15:33.679Z,939.74
2019-03-17T06:16:33.665Z,939.83
2019-03-17T06:17:33.653Z,939.67
2019-03-17T06:18:33.640Z,939.61
2019-03-17T06:19:33.625Z,939.71
2019-03-17T06:20:33.612Z,939.67
2019-03-17T06:21:33.598Z,939.75
2019-03-17T06:22:33.585Z,939.78
2019-03-17T06:23:33.572Z,939.69
2019-03-17T06:24:33.557Z,939.77
2019-03-17T06:25:33.602Z,939.88
2019-03-17T06:26:33.531Z,939.83
2019-03-17T06:27:33.520Z,939.76
2019-03-17T06:28:33.507Z,939.53
2019-03-17T06:29:33.492Z,939.88
2019-03-17T06:30:33.477Z,939.8
2019-03-17T06:31:33.464Z,939.77
2019-03-17T06:32:33.450Z,939.8
2019-03-17T06:33:33.437Z,939.75
2019-03-17T06:34:33.425Z,939.89
2019-03-17T06:35:33.411Z,939.81
2019-03-17T06:36:33.398Z,939.82
2019-03-17T06:37:33.384Z,939.75
2019-03-17T06:38:33.371Z,939.77
2019-03-17T06:39:33.367Z,939.64
2019-03-17T06:40:33.345Z,939.78
2019-03-17T06:41:33.332Z,939.82
2019-03-17T06:42:33.320Z,939.76
2019-03-17T06:43:33.307Z,939.78
2019-03-17T06:44:33.292Z,939.83
2019-03-17T06:45:33.280Z,939.82
2019-03-17T06:46:33.266Z,939.77
2019-03-17T06:47:33.254Z,940.01
2019-03-17T06:48:33.240Z,939.83
2019-03-17T06:49:33.231Z,939.79
2019-03-17T06:50:33.216Z,939.75
2019-03-17T06:51:33.202Z,939.72
2019-03-17T06:52:33.189Z,939.78
2019-03-17T06:53:33.178Z,939.79
2019-03-17T06:54:33.165Z,939.74
2019-03-17T06:55:33.150Z,939.92
2019-03-17T06:56:33.136Z,939.85
2019-03-17T06:57:33.126Z,939.87
2019-03-17T06:58:33.112Z,939.77
2019-03-17T06:59:33.099Z,939.82
2019-03-17T07:00:33.086Z,939.74
2019-03-17T07:01:33.073Z,939.91
2019-03-17T07:02:33.060Z,939.77
2019-03-17T07:03:33.046Z,939.78
2019-03-17T07:04:33.036Z,939.83
2019-03-17T07:05:33.021Z,939.73
2019-03-17T07:06:33.010Z,939.79
2019-03-17T07:07:43.123Z,939.68
2019-03-17T07:08:32.984Z,939.76
2019-03-17T07:09:32.971Z,939.65
2019-03-17T07:10:32.957Z,939.76
2019-03-17T07:11:32.943Z,939.68
2019-03-17T07:12:32.931Z,939.71
2019-03-17T07:13:32.919Z,939.76
2019-03-17T07:14:32.904Z,939.78
2019-03-17T07:15:32.891Z,939.66
2019-03-17T07:16:32.883Z,939.66
2019-03-17T07:17:32.868Z,939.75
2019-03-17T07:18:32.853Z,939.74
2019-03-17T07:19:32.841Z,939.67
2019-03-17T07:20:32.828Z,939.69
2019-03-17T07:21:32.814Z,939.62
2019-03-17T07:22:32.802Z,939.63
2019-03-17T07:23:34.235Z,939.62
2019-03-17T07:24:32.776Z,939.59
2019-03-17T07:25:32.764Z,939.66
2019-03-17T07:26:32.749Z,939.66
2019-03-17T07:27:32.737Z,939.62
2019-03-17T07:28:32.724Z,939.53
2019-03-17T07:29:32.712Z,939.6
2019-03-17T07:30:32.699Z,939.68
2019-03-17T07:31:32.691Z,939.62
2019-03-17T07:32:32.672Z,939.6
2019-03-17T07:33:32.661Z,939.58
2019-03-17T07:34:32.647Z,939.58
2019-03-17T07:35:32.637Z,939.6
2019-03-17T07:36:32.622Z,939.61
2019-03-17T07:37:32.608Z,939.56
2019-03-17T07:38:32.596Z,939.66
2019-03-17T07:39:32.583Z,939.53
2019-03-17T07:40:32.570Z,939.68
2019-03-17T07:41:32.558Z,939.76
2019-03-17T07:42:32.782Z,939.61
2019-03-17T07:43:32.533Z,939.61
2019-03-17T07:44:32.520Z,939.58
2019-03-17T07:45:32.511Z,939.62
2019-03-17T07:46:32.496Z,939.64
2019-03-17T07:47:32.482Z,939.7
2019-03-17T07:48:32.506Z,939.66
2019-03-17T07:49:32.458Z,939.73
2019-03-17T07:50:32.443Z,939.66
2019-03-17T07:51:32.432Z,939.71
2019-03-17T07:52:32.421Z,939.72
2019-03-17T07:53:32.406Z,939.68
2019-03-17T07:54:34.948Z,939.73
2019-03-17T07:55:32.403Z,939.73
2019-03-17T07:56:32.369Z,939.62
2019-03-17T07:57:32.357Z,939.74
2019-03-17T07:58:32.343Z,939.72
2019-03-17T07:59:32.331Z,939.84
2019-03-17T08:00:32.567Z,939.77
2019-03-17T08:01:32.307Z,939.82
2019-03-17T08:02:32.294Z,939.93
2019-03-17T08:03:32.281Z,939.83
2019-03-17T08:04:41.813Z,939.8
2019-03-17T08:05:32.257Z,939.82
2019-03-17T08:06:32.246Z,939.89
2019-03-17T08:07:32.236Z,939.86
2019-03-17T08:08:32.266Z,939.87
2019-03-17T08:09:32.280Z,939.95
2019-03-17T08:10:32.197Z,939.97
2019-03-17T08:11:32.185Z,940.04
2019-03-17T08:12:32.172Z,940.05
2019-03-17T08:13:32.161Z,940.04
2019-03-17T08:14:32.149Z,940.07
2019-03-17T08:15:32.137Z,940.04
2019-03-17T08:16:32.130Z,940.08
2019-03-17T08:17:32.113Z,939.93
2019-03-17T08:18:32.102Z,940.05
2019-03-17T08:19:32.239Z,940.02
2019-03-17T08:20:32.096Z,940.03
2019-03-17T08:21:32.066Z,940.21
2019-03-17T08:22:32.055Z,940.05
2019-03-17T08:23:32.043Z,940.14
2019-03-17T08:24:32.034Z,940.15
2019-03-17T08:25:32.021Z,940.11
2019-03-17T08:26:32.009Z,940.09
2019-03-17T08:27:31.997Z,940.22
2019-03-17T08:28:31.986Z,940.09
2019-03-17T08:29:31.979Z,940.08
2019-03-17T08:30:31.963Z,940.23
2019-03-17T08:31:31.951Z,940.13
2019-03-17T08:32:31.940Z,940.13
2019-03-17T08:33:31.927Z,940.13
2019-03-17T08:34:31.918Z,940.22
2019-03-17T08:35:31.904Z,940.2
2019-03-17T08:36:31.894Z,940.19
2019-03-17T08:37:31.882Z,940.15
2019-03-17T08:38:31.871Z,940.18
2019-03-17T08:39:31.859Z,940.18
2019-03-17T08:40:31.848Z,940.16
2019-03-17T08:41:31.836Z,940.13
2019-03-17T08:42:31.826Z,940.17
2019-03-17T08:43:31.814Z,940.11
2019-03-17T08:44:31.805Z,940.2
2019-03-17T08:45:31.792Z,940.25
2019-03-17T08:46:31.781Z,940.27
2019-03-17T08:47:31.774Z,940.2
2019-03-17T08:48:31.759Z,940.18
2019-03-17T08:49:31.749Z,940.28
2019-03-17T08:50:31.737Z,940.27
2019-03-17T08:51:31.750Z,940.26
2019-03-17T08:52:34.144Z,940.32
2019-03-17T08:53:31.705Z,940.27
2019-03-17T08:54:31.693Z,940.22
2019-03-17T08:55:31.684Z,940.22
2019-03-17T08:56:31.671Z,940.37
2019-03-17T08:57:31.661Z,940.24
2019-03-17T08:58:31.650Z,940.28
2019-03-17T08:59:31.641Z,940.21
2019-03-17T09:00:31.628Z,940.33
2019-03-17T09:01:31.617Z,940.29
2019-03-17T09:02:31.607Z,940.31
2019-03-17T09:03:31.594Z,940.37
2019-03-17T09:04:31.584Z,940.36
2019-03-17T09:05:31.577Z,940.31
2019-03-17T09:06:31.563Z,940.32
2019-03-17T09:07:31.553Z,940.38
2019-03-17T09:08:35.152Z,940.38
2019-03-17T09:09:31.532Z,940.38
2019-03-17T09:10:31.523Z,940.41
2019-03-17T09:11:31.514Z,940.39
2019-03-17T09:12:31.501Z,940.45
2019-03-17T09:13:31.492Z,940.34
2019-03-17T09:14:31.478Z,940.42
2019-03-17T09:15:31.467Z,940.35
2019-03-17T09:16:31.458Z,940.3
2019-03-17T09:17:31.446Z,940.43
2019-03-17T09:18:31.438Z,940.41
2019-03-17T09:19:31.425Z,940.29
2019-03-17T09:20:31.415Z,940.26
2019-03-17T09:21:31.404Z,940.29
2019-03-17T09:22:31.393Z,940.32
2019-03-17T09:23:31.383Z,940.29
2019-03-17T09:24:31.373Z,940.27
2019-03-17T09:25:31.361Z,940.35
2019-03-17T09:26:31.356Z,940.28
2019-03-17T09:27:31.341Z,940.29
2019-03-17T09:28:31.342Z,940.38
2019-03-17T09:29:31.320Z,940.41
2019-03-17T09:30:31.308Z,940.27
2019-03-17T09:31:31.299Z,940.34
2019-03-17T09:32:31.289Z,940.37
2019-03-17T09:33:31.278Z,940.38
2019-03-17T09:34:31.269Z,940.37
2019-03-17T09:35:31.257Z,940.46
2019-03-17T09:36:32.374Z,940.42
2019-03-17T09:37:31.236Z,940.45
2019-03-17T09:38:31.229Z,940.48
2019-03-17T09:39:31.217Z,940.5
2019-03-17T09:40:31.207Z,940.49
2019-03-17T09:41:31.196Z,940.52
2019-03-17T09:42:31.193Z,940.45
2019-03-17T09:43:31.177Z,940.56
2019-03-17T09:44:31.182Z,940.49
2019-03-17T09:45:31.156Z,940.56
2019-03-17T09:46:31.147Z,940.54
2019-03-17T09:47:31.136Z,940.44
2019-03-17T09:48:31.129Z,940.56
2019-03-17T09:49:31.117Z,940.54
2019-03-17T09:50:31.108Z,940.64
2019-03-17T09:51:31.176Z,940.58
2019-03-17T09:52:31.090Z,940.66
2019-03-17T09:53:31.126Z,940.59
2019-03-17T09:54:31.067Z,940.57
2019-03-17T09:55:31.061Z,940.63
2019-03-17T09:56:31.049Z,940.62
2019-03-17T09:57:31.043Z,940.59
2019-03-17T09:58:31.029Z,940.55
2019-03-17T09:59:31.021Z,940.66
2019-03-17T10:00:31.013Z,940.58
2019-03-17T10:01:31.001Z,940.58
2019-03-17T10:02:30.990Z,940.47
2019-03-17T10:03:30.984Z,940.61
2019-03-17T10:04:30.972Z,940.67
2019-03-17T10:05:30.962Z,940.64
2019-03-17T10:06:30.954Z,940.66
2019-03-17T10:07:30.947Z,940.56
2019-03-17T10:08:30.934Z,940.57
2019-03-17T10:09:30.924Z,940.61
2019-03-17T10:10:30.920Z,940.61
2019-03-17T10:11:30.913Z,940.58
2019-03-17T10:12:30.897Z,940.64
2019-03-17T10:13:30.888Z,940.46
2019-03-17T10:14:30.897Z,940.52
2019-03-17T10:15:30.872Z,940.62
2019-03-17T10:16:30.860Z,940.54
2019-03-17T10:17:30.850Z,940.67
2019-03-17T10:18:30.841Z,940.5
2019-03-17T10:19:30.832Z,940.46
2019-03-17T10:20:30.822Z,940.48
2019-03-17T10:21:30.815Z,940.47
2019-03-17T10:22:30.806Z,940.36
2019-03-17T10:23:30.795Z,940.42
2019-03-17T10:24:30.785Z,940.48
2019-03-17T10:25:30.777Z,940.45
2019-03-17T10:26:30.784Z,940.47
2019-03-17T10:27:30.758Z,940.48
2019-03-17T10:28:30.749Z,940.42
2019-03-17T10:29:30.740Z,940.49
2019-03-17T10:30:30.731Z,940.4
2019-03-17T10:31:30.721Z,940.47
2019-03-17T10:32:30.712Z,940.41
2019-03-17T10:33:30.706Z,940.33
2019-03-17T10:34:30.697Z,940.38
2019-03-17T10:35:30.686Z,940.31
2019-03-17T10:36:30.678Z,940.43
2019-03-17T10:37:30.669Z,940.48
2019-03-17T10:38:30.661Z,940.38
2019-03-17T10:39:30.650Z,940.4
2019-03-17T10:40:30.643Z,940.24
2019-03-17T10:41:30.632Z,940.34
2019-03-17T10:42:30.623Z,940.31
2019-03-17T10:43:30.614Z,940.28
2019-03-17T10:44:30.605Z,940.33
2019-03-17T10:45:30.599Z,940.19
2019-03-17T10:46:30.587Z,940.35
2019-03-17T10:47:30.578Z,940.24
2019-03-17T10:48:30.570Z,940.26
2019-03-17T10:49:30.561Z,940.23
2019-03-17T10:50:30.550Z,940.23
2019-03-17T10:51:30.543Z,940.22
2019-03-17T10:52:30.535Z,940.33
2019-03-17T10:53:30.524Z,940.41
2019-03-17T10:54:30.518Z,940.35
2019-03-17T10:55:30.521Z,940.34
2019-03-17T10:56:30.499Z,940.36
2019-03-17T10:57:30.489Z,940.36
2019-03-17T10:58:30.480Z,940.31
2019-03-17T10:59:30.471Z,940.32
2019-03-17T11:00:30.462Z,940.34
2019-03-17T11:01:30.453Z,940.31
2019-03-17T11:02:30.445Z,940.33
2019-03-17T11:03:30.443Z,940.39
2019-03-17T11:04:30.427Z,940.34
2019-03-17T11:05:30.673Z,940.39
2019-03-17T11:06:30.413Z,940.57
2019-03-17T11:07:30.403Z,940.53
2019-03-17T11:08:30.393Z,940.36
2019-03-17T11:09:30.384Z,940.53
2019-03-17T11:10:30.375Z,940.52
2019-03-17T11:11:30.369Z,940.44
2019-03-17T11:12:30.360Z,940.54
2019-03-17T11:13:30.349Z,940.48
2019-03-17T11:14:30.340Z,940.5
2019-03-17T11:15:30.332Z,940.57
2019-03-17T11:16:30.323Z,940.75
2019-03-17T11:17:30.314Z,940.65
2019-03-17T11:18:30.306Z,940.64
2019-03-17T11:19:30.298Z,940.74
2019-03-17T11:20:30.289Z,940.64
2019-03-17T11:21:30.282Z,940.69
2019-03-17T11:22:30.273Z,940.6
2019-03-17T11:23:30.265Z,940.71
2019-03-17T11:24:30.258Z,940.65
2019-03-17T11:25:30.248Z,940.63
2019-03-17T11:26:30.240Z,940.67
2019-03-17T11:27:30.231Z,940.61
2019-03-17T11:28:30.223Z,940.6
2019-03-17T11:29:30.213Z,940.59
2019-03-17T11:30:30.205Z,940.63
2019-03-17T11:31:30.204Z,940.64
2019-03-17T11:32:30.194Z,940.68
2019-03-17T11:33:30.184Z,940.66
2019-03-17T11:34:30.173Z,940.74
2019-03-17T11:35:30.164Z,940.65
2019-03-17T11:36:30.221Z,940.56
2019-03-17T11:37:30.149Z,940.49
2019-03-17T11:38:30.141Z,940.46
2019-03-17T11:39:37.475Z,940.52
2019-03-17T11:40:30.124Z,940.41
2019-03-17T11:41:30.117Z,940.46
2019-03-17T11:42:30.111Z,940.45
2019-03-17T11:43:30.104Z,940.42
2019-03-17T11:44:30.095Z,940.4
2019-03-17T11:45:30.087Z,940.4
2019-03-17T11:46:30.079Z,940.41
2019-03-17T11:47:30.073Z,940.36
2019-03-17T11:48:30.066Z,940.29
2019-03-17T11:49:30.055Z,940.44
2019-03-17T11:50:30.049Z,940.34
2019-03-17T11:51:30.045Z,940.28
2019-03-17T11:52:30.042Z,940.21
2019-03-17T11:53:30.037Z,940.27
2019-03-17T11:54:30.038Z,940.37
2019-03-17T11:55:31.777Z,940.31
2019-03-17T11:56:30.004Z,940.24
2019-03-17T11:57:29.996Z,940.25
2019-03-17T11:58:29.989Z,940.19
2019-03-17T11:59:29.981Z,940.2
2019-03-17T12:00:29.973Z,940.22
2019-03-17T12:01:29.967Z,940.14
2019-03-17T12:02:29.958Z,940.27
2019-03-17T12:03:29.950Z,940.17
2019-03-17T12:04:29.943Z,940.16
2019-03-17T12:05:29.938Z,940.08
2019-03-17T12:06:29.927Z,940.1
2019-03-17T12:07:29.919Z,940.11
2019-03-17T12:08:29.912Z,940.12
2019-03-17T12:09:29.915Z,940.06
2019-03-17T12:10:29.902Z,940.02
2019-03-17T12:11:29.890Z,940.06
2019-03-17T12:12:29.882Z,940.11
2019-03-17T12:13:29.874Z,940.15
2019-03-17T12:14:29.868Z,940.15
2019-03-17T12:15:29.879Z,940.14
2019-03-17T12:16:29.853Z,940.16
2019-03-17T12:17:29.844Z,940.13
2019-03-17T12:18:29.838Z,940.14
2019-03-17T12:19:32.665Z,940.21
2019-03-17T12:20:29.823Z,940.14
2019-03-17T12:21:29.815Z,940.16
2019-03-17T12:22:29.808Z,940.27
2019-03-17T12:23:29.799Z,940.2
2019-03-17T12:24:29.793Z,940.08
2019-03-17T12:25:29.785Z,940.09
2019-03-17T12:26:29.777Z,940.11
2019-03-17T12:27:29.775Z,940.11
2019-03-17T12:28:29.761Z,940.24
2019-03-17T12:29:29.754Z,940.09
2019-03-17T12:30:29.747Z,940.07